createdAt,value
2018-04-17T00:00:12.637Z,0
2018-04-17T00:01:13.363Z,0
2018-04-17T00:02:14.112Z,0
2018-04-17T00:03:14.841Z,0
2018-04-17T00:04:15.592Z,0
2018-04-17T00:05:16.385Z,0
2018-04-17T00:06:17.114Z,0
2018-04-17T00:07:17.931Z,0
2018-04-17T00:08:19.052Z,0
2018-04-17T00:09:19.783Z,0
2018-04-17T00:10:20.540Z,0
2018-04-17T00:11:21.313Z,0
2018-04-17T00:12:22.071Z,0
2018-04-17T00:13:22.860Z,0
2018-04-17T00:14:23.691Z,0
2018-04-17T00:15:24.425Z,0
2018-04-17T00:16:25.225Z,0
2018-04-17T00:17:25.965Z,0
2018-04-17T00:18:26.701Z,0
2018-04-17T00:19:27.433Z,0
2018-04-17T00:20:28.166Z,0
2018-04-17T00:21:28.898Z,0
2018-04-17T00:22:29.638Z,0
2018-04-17T00:23:30.737Z,0
2018-04-17T00:24:31.499Z,0
2018-04-17T00:25:32.235Z,0
2018-04-17T00:26:33.036Z,0
2018-04-17T00:27:33.839Z,0
2018-04-17T00:28:34.564Z,0
2018-04-17T00:29:35.393Z,0
2018-04-17T00:30:36.170Z,0
2018-04-17T00:31:36.899Z,0
2018-04-17T00:32:37.643Z,0
2018-04-17T00:33:38.437Z,0
2018-04-17T00:34:39.165Z,0
2018-04-17T00:35:40.014Z,0
2018-04-17T00:36:40.814Z,0
2018-04-17T00:37:41.636Z,0
2018-04-17T00:38:42.374Z,0
2018-04-17T00:39:43.083Z,0
2018-04-17T00:40:43.839Z,0
2018-04-17T00:41:44.580Z,0
2018-04-17T00:42:45.332Z,0
2018-04-17T00:43:46.127Z,0
2018-04-17T00:44:46.867Z,0
2018-04-17T00:45:47.615Z,0
2018-04-17T00:46:48.360Z,0
2018-04-17T00:47:49.111Z,0
2018-04-17T00:48:49.868Z,0
2018-04-17T00:49:50.680Z,0
2018-04-17T00:50:51.419Z,0
2018-04-17T00:51:52.152Z,0
2018-04-17T00:52:52.976Z,0
2018-04-17T00:53:53.690Z,0
2018-04-17T00:54:54.417Z,0
2018-04-17T00:55:55.158Z,0
2018-04-17T00:56:55.975Z,0
2018-04-17T00:57:56.718Z,0
2018-04-17T00:58:57.557Z,0
2018-04-17T00:59:58.293Z,0
2018-04-17T01:00:59.028Z,0
2018-04-17T01:01:59.768Z,0
2018-04-17T01:03:00.508Z,0
2018-04-17T01:04:01.561Z,0
2018-04-17T01:05:02.298Z,0
2018-04-17T01:06:03.059Z,0
2018-04-17T01:07:03.796Z,0
2018-04-17T01:08:04.563Z,0
2018-04-17T01:09:05.294Z,0
2018-04-17T01:10:06.451Z,0
2018-04-17T01:11:07.192Z,0
2018-04-17T01:12:07.902Z,0
2018-04-17T01:13:08.663Z,0
2018-04-17T01:14:09.472Z,0
2018-04-17T01:15:10.212Z,0
2018-04-17T01:16:10.943Z,0
2018-04-17T01:17:11.675Z,0
2018-04-17T01:18:12.401Z,0
2018-04-17T01:19:13.148Z,0
2018-04-17T01:20:13.927Z,0
2018-04-17T01:21:14.661Z,0
2018-04-17T01:22:15.396Z,0
2018-04-17T01:23:16.152Z,0
2018-04-17T01:24:16.934Z,0
2018-04-17T01:25:17.685Z,0
2018-04-17T01:26:18.421Z,0
2018-04-17T01:27:19.202Z,0
2018-04-17T01:28:20.016Z,0
2018-04-17T01:29:20.756Z,0
2018-04-17T01:30:21.541Z,0
2018-04-17T01:31:22.259Z,0
2018-04-17T01:32:23.176Z,0
2018-04-17T01:33:23.907Z,0
2018-04-17T01:34:24.622Z,0
2018-04-17T01:35:25.379Z,0
2018-04-17T01:36:26.098Z,0
2018-04-17T01:37:26.839Z,0
2018-04-17T01:38:27.695Z,0
2018-04-17T01:39:28.520Z,0
2018-04-17T01:40:29.345Z,0
2018-04-17T01:41:30.077Z,0
2018-04-17T01:42:30.899Z,0
2018-04-17T01:43:31.772Z,0
2018-04-17T01:44:32.568Z,0
2018-04-17T01:45:33.383Z,0
2018-04-17T01:46:34.185Z,0
2018-04-17T01:47:35.001Z,0
2018-04-17T01:48:35.794Z,0
2018-04-17T01:49:36.520Z,0
2018-04-17T01:50:37.261Z,0
2018-04-17T01:51:37.988Z,0
2018-04-17T01:52:38.732Z,0
2018-04-17T01:53:39.530Z,0
2018-04-17T01:54:40.270Z,0
2018-04-17T01:55:41.009Z,0
2018-04-17T01:56:41.753Z,0
2018-04-17T01:57:42.568Z,0
2018-04-17T01:58:43.297Z,0
2018-04-17T01:59:44.005Z,0
2018-04-17T02:00:44.820Z,0
2018-04-17T02:01:45.615Z,0
2018-04-17T02:02:46.420Z,0
2018-04-17T02:03:47.163Z,0
2018-04-17T02:04:47.902Z,0
2018-04-17T02:05:48.630Z,0
2018-04-17T02:06:49.413Z,0
2018-04-17T02:07:50.235Z,0
2018-04-17T02:08:50.977Z,0
2018-04-17T02:09:51.742Z,0
2018-04-17T02:10:52.554Z,0
2018-04-17T02:11:53.289Z,0
2018-04-17T02:12:54.081Z,0
2018-04-17T02:13:54.883Z,0
2018-04-17T02:14:55.606Z,0
2018-04-17T02:15:56.329Z,0
2018-04-17T02:16:57.074Z,0
2018-04-17T02:17:57.916Z,0
2018-04-17T02:18:58.649Z,0
2018-04-17T02:19:59.465Z,0
2018-04-17T02:21:00.277Z,0
2018-04-17T02:22:01.028Z,0
2018-04-17T02:23:01.936Z,0
2018-04-17T02:24:02.729Z,0
2018-04-17T02:25:03.535Z,0
2018-04-17T02:26:04.293Z,0
2018-04-17T02:27:05.102Z,0
2018-04-17T02:28:05.915Z,0
2018-04-17T02:29:06.650Z,0
2018-04-17T02:30:07.402Z,0
2018-04-17T02:31:08.221Z,0
2018-04-17T02:32:08.961Z,0
2018-04-17T02:33:09.688Z,0
2018-04-17T02:34:10.792Z,0
2018-04-17T02:35:11.527Z,0
2018-04-17T02:36:12.345Z,0
2018-04-17T02:37:13.072Z,0
2018-04-17T02:38:13.861Z,0
2018-04-17T02:39:14.605Z,0
2018-04-17T02:40:15.342Z,0
2018-04-17T02:41:16.070Z,0
2018-04-17T02:42:16.835Z,0
2018-04-17T02:43:17.634Z,0
2018-04-17T02:44:18.378Z,0
2018-04-17T02:45:19.187Z,0
2018-04-17T02:46:19.995Z,0
2018-04-17T02:47:20.717Z,0
2018-04-17T02:48:21.483Z,0
2018-04-17T02:49:22.215Z,0
2018-04-17T02:50:22.945Z,0
2018-04-17T02:51:23.689Z,0
2018-04-17T02:52:24.524Z,0
2018-04-17T02:53:25.293Z,0
2018-04-17T02:54:26.107Z,0
2018-04-17T02:55:26.856Z,0
2018-04-17T02:56:27.678Z,0
2018-04-17T02:57:28.507Z,0
2018-04-17T02:58:29.238Z,0
2018-04-17T02:59:30.037Z,0
2018-04-17T03:00:30.843Z,0
2018-04-17T03:01:31.585Z,0
2018-04-17T03:02:32.383Z,0
2018-04-17T03:03:33.105Z,0
2018-04-17T03:04:33.834Z,0
2018-04-17T03:05:34.569Z,0
2018-04-17T03:06:35.294Z,0
2018-04-17T03:07:36.033Z,0
2018-04-17T03:08:36.885Z,0
2018-04-17T03:09:37.701Z,0
2018-04-17T03:10:38.517Z,0
2018-04-17T03:11:39.252Z,0
2018-04-17T03:12:40.077Z,0
2018-04-17T03:13:40.831Z,0
2018-04-17T03:14:41.532Z,0
2018-04-17T03:15:42.405Z,0
2018-04-17T03:16:43.266Z,0
2018-04-17T03:17:44.062Z,0
2018-04-17T03:18:44.873Z,0
2018-04-17T03:19:45.630Z,0
2018-04-17T03:20:46.706Z,0
2018-04-17T03:21:47.450Z,0
2018-04-17T03:22:48.197Z,0
2018-04-17T03:23:48.976Z,0
2018-04-17T03:24:49.712Z,0
2018-04-17T03:25:50.507Z,0
2018-04-17T03:26:51.192Z,0
2018-04-17T03:27:51.942Z,0
2018-04-17T03:28:52.668Z,0
2018-04-17T03:29:53.430Z,0
2018-04-17T03:30:54.251Z,0
2018-04-17T03:31:54.991Z,0
2018-04-17T03:32:55.712Z,0
2018-04-17T03:33:56.451Z,0
2018-04-17T03:34:57.270Z,0
2018-04-17T03:35:58.001Z,0
2018-04-17T03:36:58.810Z,0
2018-04-17T03:37:59.649Z,0
2018-04-17T03:39:00.413Z,0
2018-04-17T03:40:01.196Z,0
2018-04-17T03:41:01.922Z,0
2018-04-17T03:42:02.743Z,0
2018-04-17T03:43:03.534Z,0
2018-04-17T03:44:04.651Z,0
2018-04-17T03:45:05.392Z,0
2018-04-17T03:46:06.114Z,0
2018-04-17T03:47:06.922Z,0
2018-04-17T03:48:07.667Z,0
2018-04-17T03:49:08.410Z,4
2018-04-17T03:50:09.146Z,4
2018-04-17T03:51:10.187Z,4
2018-04-17T03:52:10.921Z,4
2018-04-17T03:53:11.657Z,4
2018-04-17T03:54:12.456Z,8
2018-04-17T03:55:13.237Z,4
2018-04-17T03:56:14.073Z,8
2018-04-17T03:57:14.870Z,8
2018-04-17T03:58:15.681Z,12
2018-04-17T03:59:16.414Z,12
2018-04-17T04:00:17.154Z,16
2018-04-17T04:01:17.885Z,16
2018-04-17T04:02:18.612Z,20
2018-04-17T04:03:19.515Z,24
2018-04-17T04:04:20.245Z,28
2018-04-17T04:05:20.977Z,32
2018-04-17T04:06:21.706Z,36
2018-04-17T04:07:22.450Z,48
2018-04-17T04:08:23.277Z,52
2018-04-17T04:09:24.015Z,60
2018-04-17T04:10:24.755Z,68
2018-04-17T04:11:25.504Z,80
2018-04-17T04:12:26.252Z,84
2018-04-17T04:13:27.055Z,100
2018-04-17T04:14:27.817Z,112
2018-04-17T04:15:28.595Z,128
2018-04-17T04:16:29.328Z,148
2018-04-17T04:17:30.144Z,168
2018-04-17T04:18:30.874Z,184
2018-04-17T04:19:31.627Z,208
2018-04-17T04:20:32.347Z,232
2018-04-17T04:21:33.062Z,252
2018-04-17T04:22:33.810Z,276
2018-04-17T04:23:34.549Z,308
2018-04-17T04:24:35.300Z,340
2018-04-17T04:25:36.037Z,372
2018-04-17T04:26:36.770Z,404
2018-04-17T04:27:37.560Z,452
2018-04-17T04:28:38.302Z,492
2018-04-17T04:29:39.094Z,536
2018-04-17T04:30:39.845Z,588
2018-04-17T04:31:40.598Z,628
2018-04-17T04:32:41.728Z,656
2018-04-17T04:33:42.469Z,692
2018-04-17T04:34:43.212Z,728
2018-04-17T04:35:43.953Z,768
2018-04-17T04:36:44.728Z,812
2018-04-17T04:37:45.464Z,840
2018-04-17T04:38:46.226Z,884
2018-04-17T04:39:47.032Z,924
2018-04-17T04:40:47.758Z,976
2018-04-17T04:41:48.493Z,1040
2018-04-17T04:42:49.258Z,1104
2018-04-17T04:43:50.034Z,1160
2018-04-17T04:44:50.879Z,1196
2018-04-17T04:45:51.683Z,1248
2018-04-17T04:46:52.437Z,1296
2018-04-17T04:47:53.220Z,1340
2018-04-17T04:48:54.031Z,1400
2018-04-17T04:49:55.144Z,1460
2018-04-17T04:50:55.963Z,1516
2018-04-17T04:51:56.704Z,1572
2018-04-17T04:52:57.463Z,1624
2018-04-17T04:53:58.206Z,1680
2018-04-17T04:54:58.997Z,1744
2018-04-17T04:55:59.735Z,1812
2018-04-17T04:57:00.477Z,1876
2018-04-17T04:58:01.292Z,1940
2018-04-17T04:59:02.040Z,2004
2018-04-17T05:00:02.767Z,2076
2018-04-17T05:01:03.584Z,2156
2018-04-17T05:02:04.340Z,2236
2018-04-17T05:03:05.074Z,2320
2018-04-17T05:04:05.822Z,2400
2018-04-17T05:05:06.559Z,2480
2018-04-17T05:06:07.290Z,2552
2018-04-17T05:07:08.025Z,2628
2018-04-17T05:08:09.218Z,2716
2018-04-17T05:09:09.965Z,2820
2018-04-17T05:10:10.777Z,2924
2018-04-17T05:11:11.559Z,3016
2018-04-17T05:12:12.292Z,3108
2018-04-17T05:13:13.033Z,3196
2018-04-17T05:14:13.766Z,3280
2018-04-17T05:15:14.543Z,3388
2018-04-17T05:16:15.265Z,3496
2018-04-17T05:17:16.017Z,3620
2018-04-17T05:18:17.150Z,3716
2018-04-17T05:19:17.966Z,3840
2018-04-17T05:20:18.695Z,3968
2018-04-17T05:21:19.443Z,4052
2018-04-17T05:22:20.184Z,4156
2018-04-17T05:23:20.936Z,4240
2018-04-17T05:24:21.665Z,4372
2018-04-17T05:25:22.496Z,4468
2018-04-17T05:26:23.252Z,4520
2018-04-17T05:27:24.063Z,4764
2018-04-17T05:28:24.805Z,4712
2018-04-17T05:29:25.552Z,4816
2018-04-17T05:30:26.385Z,5044
2018-04-17T05:31:27.125Z,5116
2018-04-17T05:32:27.876Z,5268
2018-04-17T05:33:28.691Z,5372
2018-04-17T05:34:29.442Z,5540
2018-04-17T05:35:30.275Z,5592
2018-04-17T05:36:31.087Z,5600
2018-04-17T05:37:31.923Z,5680
2018-04-17T05:38:32.732Z,5840
2018-04-17T05:39:33.480Z,6008
2018-04-17T05:40:34.239Z,6128
2018-04-17T05:41:35.020Z,6256
2018-04-17T05:42:35.947Z,6464
2018-04-17T05:43:36.692Z,6656
2018-04-17T05:44:37.501Z,6532
2018-04-17T05:45:38.247Z,6772
2018-04-17T05:46:38.994Z,6920
2018-04-17T05:47:39.800Z,6836
2018-04-17T05:48:40.657Z,7028
2018-04-17T05:49:41.408Z,7480
2018-04-17T05:50:42.215Z,7764
2018-04-17T05:51:42.970Z,7748
2018-04-17T05:52:43.728Z,7856
2018-04-17T05:53:44.620Z,7916
2018-04-17T05:54:45.437Z,8216
2018-04-17T05:55:46.217Z,8620
2018-04-17T05:56:46.934Z,8876
2018-04-17T05:57:47.655Z,8952
2018-04-17T05:58:48.403Z,9328
2018-04-17T05:59:49.149Z,8900
2018-04-17T06:00:49.895Z,9512
2018-04-17T06:01:50.724Z,9688
2018-04-17T06:02:51.457Z,9980
2018-04-17T06:03:52.269Z,9940
2018-04-17T06:04:53.021Z,9648
2018-04-17T06:05:53.849Z,9832
2018-04-17T06:06:54.599Z,10280
2018-04-17T06:07:55.433Z,10404
2018-04-17T06:08:56.179Z,10600
2018-04-17T06:09:56.955Z,10588
2018-04-17T06:10:57.714Z,10988
2018-04-17T06:11:58.467Z,10792
2018-04-17T06:12:59.223Z,10556
2018-04-17T06:13:59.964Z,10332
2018-04-17T06:15:00.722Z,9916
2018-04-17T06:16:01.491Z,9736
2018-04-17T06:17:02.236Z,10016
2018-04-17T06:18:02.973Z,10352
2018-04-17T06:19:03.736Z,11016
2018-04-17T06:20:04.605Z,10820
2018-04-17T06:21:05.430Z,11016
2018-04-17T06:22:06.176Z,12584
2018-04-17T06:23:06.918Z,13412
2018-04-17T06:24:07.703Z,11872
2018-04-17T06:25:08.552Z,11704
2018-04-17T06:26:09.283Z,11408
2018-04-17T06:27:09.985Z,12124
2018-04-17T06:28:10.804Z,13108
2018-04-17T06:29:11.550Z,12420
2018-04-17T06:30:12.281Z,11716
2018-04-17T06:31:13.128Z,11612
2018-04-17T06:32:13.867Z,11392
2018-04-17T06:33:14.620Z,11296
2018-04-17T06:34:15.374Z,11288
2018-04-17T06:35:16.200Z,11216
2018-04-17T06:36:16.930Z,11276
2018-04-17T06:37:17.677Z,11380
2018-04-17T06:38:18.492Z,11436
2018-04-17T06:39:19.231Z,11620
2018-04-17T06:40:19.998Z,11504
2018-04-17T06:41:20.795Z,11612
2018-04-17T06:42:21.569Z,11680
2018-04-17T06:43:22.316Z,11268
2018-04-17T06:44:23.063Z,11272
2018-04-17T06:45:23.825Z,11276
2018-04-17T06:46:24.657Z,11328
2018-04-17T06:47:25.541Z,11448
2018-04-17T06:48:26.223Z,11592
2018-04-17T06:49:26.970Z,11448
2018-04-17T06:50:27.731Z,11420
2018-04-17T06:51:28.516Z,11528
2018-04-17T06:52:29.246Z,11352
2018-04-17T06:53:30.048Z,11820
2018-04-17T06:54:30.867Z,11932
2018-04-17T06:55:31.604Z,13172
2018-04-17T06:56:32.363Z,12492
2018-04-17T06:57:33.148Z,12536
2018-04-17T06:58:34.009Z,11548
2018-04-17T06:59:34.793Z,11636
2018-04-17T07:00:35.553Z,11632
2018-04-17T07:01:36.389Z,11928
2018-04-17T07:02:37.186Z,12652
2018-04-17T07:03:38.011Z,13808
2018-04-17T07:04:38.759Z,12892
2018-04-17T07:05:39.581Z,12016
2018-04-17T07:06:40.410Z,16332
2018-04-17T07:07:41.507Z,19040
2018-04-17T07:08:42.264Z,13604
2018-04-17T07:09:43.061Z,12528
2018-04-17T07:10:43.868Z,12628
2018-04-17T07:11:44.710Z,12756
2018-04-17T07:12:45.892Z,13584
2018-04-17T07:13:46.711Z,13488
2018-04-17T07:14:47.432Z,12976
2018-04-17T07:15:48.253Z,13092
2018-04-17T07:16:48.981Z,13136
2018-04-17T07:17:49.795Z,13264
2018-04-17T07:18:50.818Z,13764
2018-04-17T07:19:51.509Z,13888
2018-04-17T07:20:52.350Z,13496
2018-04-17T07:21:53.404Z,13780
2018-04-17T07:22:54.239Z,14824
2018-04-17T07:23:55.406Z,18880
2018-04-17T07:24:56.331Z,17952
2018-04-17T07:25:57.406Z,14480
2018-04-17T07:26:58.218Z,14556
2018-04-17T07:27:59.047Z,16768
2018-04-17T07:28:59.970Z,15412
2018-04-17T07:30:00.714Z,14192
2018-04-17T07:31:01.468Z,15684
2018-04-17T07:32:02.214Z,21728
2018-04-17T07:33:02.979Z,20160
2018-04-17T07:34:03.879Z,19904
2018-04-17T07:35:04.654Z,15092
2018-04-17T07:36:05.432Z,32320
2018-04-17T07:37:06.183Z,33856
2018-04-17T07:38:07.257Z,29760
2018-04-17T07:39:08.065Z,19040
2018-04-17T07:40:08.814Z,20928
2018-04-17T07:41:09.568Z,21312
2018-04-17T07:42:10.316Z,20192
2018-04-17T07:43:11.055Z,27392
2018-04-17T07:44:11.784Z,38400
2018-04-17T07:45:12.533Z,42688
2018-04-17T07:46:13.279Z,19296
2018-04-17T07:47:14.021Z,25408
2018-04-17T07:48:14.833Z,44224
2018-04-17T07:49:15.753Z,44032
2018-04-17T07:50:16.606Z,46272
2018-04-17T07:51:17.375Z,43552
2018-04-17T07:52:18.177Z,39808
2018-04-17T07:53:18.927Z,28224
2018-04-17T07:54:19.675Z,32256
2018-04-17T07:55:20.418Z,28640
2018-04-17T07:56:21.173Z,31520
2018-04-17T07:57:21.951Z,37152
2018-04-17T07:58:22.686Z,40576
2018-04-17T07:59:23.444Z,35168
2018-04-17T08:00:24.196Z,34624
2018-04-17T08:01:24.996Z,32864
2018-04-17T08:02:25.818Z,32128
2018-04-17T08:03:26.680Z,33568
2018-04-17T08:04:27.434Z,33888
2018-04-17T08:05:28.177Z,33664
2018-04-17T08:06:28.985Z,36512
2018-04-17T08:07:29.718Z,40032
2018-04-17T08:08:30.561Z,42528
2018-04-17T08:09:31.704Z,44608
2018-04-17T08:10:32.564Z,47200
2018-04-17T08:11:33.321Z,43456
2018-04-17T08:12:34.493Z,40864
2018-04-17T08:13:35.460Z,38880
2018-04-17T08:14:36.636Z,51328
2018-04-17T08:15:37.472Z,48032
2018-04-17T08:16:38.220Z,52032
2018-04-17T08:17:39.071Z,52896
2018-04-17T08:18:40.166Z,55616
2018-04-17T08:19:41.607Z,58944
2018-04-17T08:20:42.804Z,59488
2018-04-17T08:21:44.254Z,57664
2018-04-17T08:22:45.866Z,52928
2018-04-17T08:23:46.986Z,52640
2018-04-17T08:24:47.743Z,52448
2018-04-17T08:25:48.504Z,53056
2018-04-17T08:26:49.262Z,55232
2018-04-17T08:27:50.060Z,55904
2018-04-17T08:28:50.819Z,55040
2018-04-17T08:29:51.608Z,56704
2018-04-17T08:30:52.382Z,57536
2018-04-17T08:31:53.121Z,58880
2018-04-17T08:32:53.933Z,59456
2018-04-17T08:33:54.678Z,59936
2018-04-17T08:34:55.497Z,55488
2018-04-17T08:35:56.234Z,51648
2018-04-17T08:36:57.079Z,48544
2018-04-17T08:37:57.885Z,45888
2018-04-17T08:38:58.741Z,51552
2018-04-17T08:39:59.487Z,54304
2018-04-17T08:41:00.248Z,56576
2018-04-17T08:42:01.085Z,56448
2018-04-17T08:43:01.829Z,51232
2018-04-17T08:44:02.574Z,49088
2018-04-17T08:45:03.344Z,49472
2018-04-17T08:46:04.152Z,54912
2018-04-17T08:47:04.979Z,56384
2018-04-17T08:48:05.724Z,58432
2018-04-17T08:49:06.477Z,57632
2018-04-17T08:50:07.278Z,57312
2018-04-17T08:51:08.023Z,53408
2018-04-17T08:52:08.767Z,49984
2018-04-17T08:53:09.520Z,52384
2018-04-17T08:54:10.335Z,49920
2018-04-17T08:55:11.085Z,50976
2018-04-17T08:56:11.941Z,52064
2018-04-17T08:57:12.709Z,55936
2018-04-17T08:58:13.453Z,60320
2018-04-17T08:59:14.190Z,59872
2018-04-17T09:00:14.944Z,57856
2018-04-17T09:01:15.789Z,57024
2018-04-17T09:02:16.525Z,58848
2018-04-17T09:03:17.281Z,60576
2018-04-17T09:04:18.023Z,60928
2018-04-17T09:05:18.906Z,58784
2018-04-17T09:06:19.531Z,48608
2018-04-17T09:07:20.398Z,43520
2018-04-17T09:08:21.162Z,45280
2018-04-17T09:09:21.913Z,54368
2018-04-17T09:10:22.673Z,63808
2018-04-17T09:11:23.402Z,66496
2018-04-17T09:12:24.223Z,65088
2018-04-17T09:13:24.966Z,62656
2018-04-17T09:14:25.753Z,60992
2018-04-17T09:15:26.456Z,62848
2018-04-17T09:16:27.233Z,64352
2018-04-17T09:17:28.094Z,64160
2018-04-17T09:18:28.867Z,63456
2018-04-17T09:19:29.676Z,62944
2018-04-17T09:20:30.437Z,63360
2018-04-17T09:21:31.184Z,65568
2018-04-17T09:22:32.280Z,67872
2018-04-17T09:23:33.052Z,68160
2018-04-17T09:24:33.801Z,68864
2018-04-17T09:25:34.539Z,69632
2018-04-17T09:26:35.286Z,74592
2018-04-17T09:27:36.460Z,76032
2018-04-17T09:28:37.141Z,77056
2018-04-17T09:29:37.875Z,70304
2018-04-17T09:30:38.625Z,63872
2018-04-17T09:31:39.460Z,62048
2018-04-17T09:32:40.305Z,63584
2018-04-17T09:33:41.055Z,68928
2018-04-17T09:34:41.806Z,74176
2018-04-17T09:35:42.520Z,75072
2018-04-17T09:36:43.276Z,73696
2018-04-17T09:37:44.088Z,71264
2018-04-17T09:38:44.907Z,71936
2018-04-17T09:39:45.670Z,72640
2018-04-17T09:40:46.488Z,76160
2018-04-17T09:41:47.240Z,73632
2018-04-17T09:42:47.982Z,75168
2018-04-17T09:43:48.734Z,21376
2018-04-17T09:44:49.490Z,78688
2018-04-17T09:45:50.333Z,82048
2018-04-17T09:46:51.095Z,74624
2018-04-17T09:47:51.843Z,67488
2018-04-17T09:48:52.644Z,62560
2018-04-17T09:49:53.406Z,67392
2018-04-17T09:50:54.153Z,75392
2018-04-17T09:51:54.906Z,82624
2018-04-17T09:52:55.714Z,79712
2018-04-17T09:53:56.814Z,76352
2018-04-17T09:54:57.556Z,70912
2018-04-17T09:55:58.383Z,72704
2018-04-17T09:56:59.137Z,74368
2018-04-17T09:57:59.888Z,70400
2018-04-17T09:59:00.749Z,75808
2018-04-17T10:00:01.586Z,74688
2018-04-17T10:01:02.346Z,67936
2018-04-17T10:02:03.109Z,49728
2018-04-17T10:03:03.865Z,27456
2018-04-17T10:04:04.607Z,63936
2018-04-17T10:05:05.404Z,74496
2018-04-17T10:06:06.179Z,81344
2018-04-17T10:07:06.922Z,82368
2018-04-17T10:08:07.683Z,81312
2018-04-17T10:09:08.567Z,79104
2018-04-17T10:10:09.284Z,77824
2018-04-17T10:11:10.036Z,82272
2018-04-17T10:12:10.768Z,82336
2018-04-17T10:13:11.553Z,82720
2018-04-17T10:14:12.301Z,78208
2018-04-17T10:15:13.048Z,62304
2018-04-17T10:16:14.199Z,74688
2018-04-17T10:17:14.974Z,76960
2018-04-17T10:18:15.751Z,71104
2018-04-17T10:19:16.490Z,73696
2018-04-17T10:20:17.246Z,26848
2018-04-17T10:21:18.082Z,30208
2018-04-17T10:22:18.832Z,76864
2018-04-17T10:23:19.573Z,41152
2018-04-17T10:24:20.320Z,62944
2018-04-17T10:25:21.049Z,56992
2018-04-17T10:26:21.819Z,51392
2018-04-17T10:27:23.129Z,56320
2018-04-17T10:28:23.887Z,62688
2018-04-17T10:29:24.682Z,69280
2018-04-17T10:30:25.445Z,69632
2018-04-17T10:31:26.179Z,71360
2018-04-17T10:32:26.930Z,62848
2018-04-17T10:33:28.105Z,58304
2018-04-17T10:34:28.860Z,57056
2018-04-17T10:35:29.629Z,58464
2018-04-17T10:36:30.403Z,59072
2018-04-17T10:37:32.099Z,54016
2018-04-17T10:38:32.856Z,49696
2018-04-17T10:39:33.680Z,53024
2018-04-17T10:40:34.554Z,52736
2018-04-17T10:41:35.304Z,54656
2018-04-17T10:42:36.111Z,63232
2018-04-17T10:43:36.860Z,69120
2018-04-17T10:44:37.655Z,62784
2018-04-17T10:45:38.474Z,64032
2018-04-17T10:46:39.264Z,65344
2018-04-17T10:47:40.007Z,60576
2018-04-17T10:48:40.760Z,63744
2018-04-17T10:49:41.594Z,63424
2018-04-17T10:50:42.355Z,69920
2018-04-17T10:51:43.112Z,68192
2018-04-17T10:52:43.865Z,65728
2018-04-17T10:53:44.664Z,61216
2018-04-17T10:54:45.442Z,63104
2018-04-17T10:55:46.284Z,58272
2018-04-17T10:56:47.125Z,58624
2018-04-17T10:57:47.968Z,59968
2018-04-17T10:58:48.718Z,59456
2018-04-17T10:59:49.572Z,60480
2018-04-17T11:00:50.527Z,63072
2018-04-17T11:01:51.333Z,68256
2018-04-17T11:02:52.083Z,68224
2018-04-17T11:03:52.827Z,78272
2018-04-17T11:04:53.614Z,81120
2018-04-17T11:05:54.393Z,87488
2018-04-17T11:06:55.162Z,82912
2018-04-17T11:07:55.920Z,77760
2018-04-17T11:08:56.693Z,75648
2018-04-17T11:09:57.522Z,63136
2018-04-17T11:10:58.366Z,65888
2018-04-17T11:11:59.123Z,87072
2018-04-17T11:12:59.873Z,81696
2018-04-17T11:14:00.621Z,83808
2018-04-17T11:15:01.373Z,88512
2018-04-17T11:16:02.226Z,90496
2018-04-17T11:17:03.064Z,85280
2018-04-17T11:18:03.824Z,79168
2018-04-17T11:19:04.595Z,79104
2018-04-17T11:20:05.372Z,74656
2018-04-17T11:21:06.113Z,86784
2018-04-17T11:22:06.870Z,89760
2018-04-17T11:23:07.676Z,87712
2018-04-17T11:24:09.209Z,86304
2018-04-17T11:25:10.140Z,82432
2018-04-17T11:26:11.088Z,86912
2018-04-17T11:27:11.820Z,87232
2018-04-17T11:28:12.571Z,92672
2018-04-17T11:29:13.612Z,96224
2018-04-17T11:30:14.443Z,98368
2018-04-17T11:31:15.251Z,98304
2018-04-17T11:32:16.057Z,97056
2018-04-17T11:33:16.888Z,90720
2018-04-17T11:34:17.711Z,88704
2018-04-17T11:35:18.461Z,80416
2018-04-17T11:36:19.230Z,72064
2018-04-17T11:37:20.066Z,71552
2018-04-17T11:38:20.953Z,69216
2018-04-17T11:39:21.693Z,69120
2018-04-17T11:40:22.470Z,71904
2018-04-17T11:41:23.245Z,76096
2018-04-17T11:42:24.202Z,77568
2018-04-17T11:43:24.952Z,79328
2018-04-17T11:44:25.682Z,76160
2018-04-17T11:45:26.523Z,82272
2018-04-17T11:46:27.343Z,70336
2018-04-17T11:47:28.507Z,70080
2018-04-17T11:48:29.245Z,71840
2018-04-17T11:49:30.003Z,66656
2018-04-17T11:50:30.821Z,71584
2018-04-17T11:51:31.573Z,81536
2018-04-17T11:52:32.382Z,81472
2018-04-17T11:53:33.131Z,82464
2018-04-17T11:54:33.879Z,79584
2018-04-17T11:55:34.627Z,70304
2018-04-17T11:56:35.374Z,58464
2018-04-17T11:57:36.149Z,56864
2018-04-17T11:58:36.922Z,51072
2018-04-17T11:59:37.653Z,46208
2018-04-17T12:00:38.835Z,38240
2018-04-17T12:01:39.651Z,48032
2018-04-17T12:02:40.407Z,55360
2018-04-17T12:03:41.209Z,65344
2018-04-17T12:04:41.966Z,73056
2018-04-17T12:05:43.197Z,76736
2018-04-17T12:06:44.042Z,66048
2018-04-17T12:07:44.790Z,63744
2018-04-17T12:08:45.533Z,69632
2018-04-17T12:09:46.264Z,72736
2018-04-17T12:10:47.124Z,79488
2018-04-17T12:11:47.891Z,80224
2018-04-17T12:12:48.641Z,78240
2018-04-17T12:13:49.380Z,76864
2018-04-17T12:14:50.135Z,76704
2018-04-17T12:15:50.982Z,76928
2018-04-17T12:16:51.749Z,76032
2018-04-17T12:17:52.497Z,76960
2018-04-17T12:18:53.256Z,77536
2018-04-17T12:19:54.005Z,75872
2018-04-17T12:20:55.113Z,72480
2018-04-17T12:21:55.861Z,66752
2018-04-17T12:22:56.694Z,62688
2018-04-17T12:23:57.443Z,63040
2018-04-17T12:24:58.192Z,60128
2018-04-17T12:25:59.022Z,63264
2018-04-17T12:26:59.766Z,69984
2018-04-17T12:28:00.511Z,69792
2018-04-17T12:29:01.279Z,73856
2018-04-17T12:30:02.064Z,77984
2018-04-17T12:31:02.810Z,78112
2018-04-17T12:32:03.640Z,77504
2018-04-17T12:33:04.374Z,73248
2018-04-17T12:34:05.211Z,72288
2018-04-17T12:35:05.965Z,69088
2018-04-17T12:36:06.800Z,68480
2018-04-17T12:37:07.557Z,68480
2018-04-17T12:38:08.305Z,68320
2018-04-17T12:39:09.442Z,67392
2018-04-17T12:40:10.210Z,67200
2018-04-17T12:41:10.952Z,67200
2018-04-17T12:42:11.707Z,67872
2018-04-17T12:43:12.466Z,67328
2018-04-17T12:44:13.211Z,67488
2018-04-17T12:45:14.089Z,68448
2018-04-17T12:46:14.910Z,68416
2018-04-17T12:47:15.670Z,66432
2018-04-17T12:48:16.405Z,63840
2018-04-17T12:49:17.146Z,62240
2018-04-17T12:50:17.900Z,64160
2018-04-17T12:51:18.713Z,64512
2018-04-17T12:52:19.464Z,65856
2018-04-17T12:53:20.227Z,66464
2018-04-17T12:54:20.981Z,66304
2018-04-17T12:55:21.744Z,66912
2018-04-17T12:56:22.574Z,66304
2018-04-17T12:57:23.315Z,65792
2018-04-17T12:58:24.115Z,64448
2018-04-17T12:59:24.924Z,63328
2018-04-17T13:00:25.673Z,63360
2018-04-17T13:01:26.519Z,64896
2018-04-17T13:02:27.288Z,67296
2018-04-17T13:03:28.106Z,68064
2018-04-17T13:04:28.831Z,72000
2018-04-17T13:05:29.645Z,75648
2018-04-17T13:06:30.420Z,77760
2018-04-17T13:07:31.266Z,78912
2018-04-17T13:08:32.024Z,79936
2018-04-17T13:09:32.763Z,80160
2018-04-17T13:10:33.510Z,79776
2018-04-17T13:11:34.273Z,76896
2018-04-17T13:12:35.442Z,74560
2018-04-17T13:13:36.236Z,73600
2018-04-17T13:14:36.978Z,72192
2018-04-17T13:15:37.746Z,72992
2018-04-17T13:16:38.497Z,73152
2018-04-17T13:17:39.310Z,71968
2018-04-17T13:18:40.044Z,69408
2018-04-17T13:19:40.793Z,67616
2018-04-17T13:20:41.561Z,65824
2018-04-17T13:21:42.313Z,60928
2018-04-17T13:22:43.066Z,58944
2018-04-17T13:23:43.864Z,59776
2018-04-17T13:24:44.640Z,61760
2018-04-17T13:25:45.517Z,64256
2018-04-17T13:26:46.239Z,66432
2018-04-17T13:27:47.442Z,70144
2018-04-17T13:28:48.144Z,72928
2018-04-17T13:29:49.272Z,73152
2018-04-17T13:30:50.052Z,70336
2018-04-17T13:31:50.811Z,67424
2018-04-17T13:32:51.575Z,65376
2018-04-17T13:33:52.372Z,66880
2018-04-17T13:34:53.133Z,63616
2018-04-17T13:35:53.882Z,66304
2018-04-17T13:36:54.627Z,66400
2018-04-17T13:37:55.370Z,64672
2018-04-17T13:38:56.165Z,64448
2018-04-17T13:39:56.931Z,66400